createdAt,value
2022-09-27T00:00:38.608Z,17.82
2022-09-27T00:03:05.755Z,17.68
2022-09-27T00:05:32.756Z,17.67
2022-09-27T00:07:59.540Z,17.52
2022-09-27T00:10:26.482Z,17.60
2022-09-27T00:12:53.326Z,17.55
2022-09-27T00:15:20.829Z,17.67
2022-09-27T00:17:51.929Z,17.71
2022-09-27T00:20:20.901Z,17.71
2022-09-27T00:22:49.321Z,17.68
2022-09-27T00:25:16.718Z,17.57
2022-09-27T00:27:43.862Z,17.45
2022-09-27T00:30:11.506Z,17.38
2022-09-27T00:32:38.413Z,17.51
2022-09-27T00:35:05.770Z,17.40
2022-09-27T00:37:32.833Z,17.58
2022-09-27T00:39:59.924Z,17.53
2022-09-27T00:42:26.730Z,17.47
2022-09-27T00:44:53.515Z,17.34
2022-09-27T00:47:23.380Z,17.41
2022-09-27T00:49:56.425Z,17.40
2022-09-27T00:52:36.002Z,17.17
2022-09-27T00:55:10.014Z,17.05
2022-09-27T00:57:37.823Z,17.16
2022-09-27T01:00:10.195Z,17.10
2022-09-27T01:02:44.557Z,17.05
2022-09-27T01:05:14.657Z,16.90
2022-09-27T01:07:42.098Z,17.07
2022-09-27T01:10:09.799Z,17.10
2022-09-27T01:13:07.119Z,17.22
2022-09-27T01:15:53.439Z,17.13
2022-09-27T01:18:36.128Z,17.11
2022-09-27T01:21:35.972Z,17.02
2022-09-27T01:24:26.777Z,17.08
2022-09-27T01:27:02.593Z,17.13
2022-09-27T01:29:35.970Z,17.14
2022-09-27T01:32:07.629Z,17.09
2022-09-27T01:34:53.348Z,17.05
2022-09-27T01:37:29.131Z,17.07
2022-09-27T01:40:24.902Z,17.06
2022-09-27T01:43:03.474Z,17.17
2022-09-27T01:45:46.204Z,17.09
2022-09-27T01:48:24.070Z,17.06
2022-09-27T01:51:06.755Z,17.03
2022-09-27T01:53:41.060Z,17.10
2022-09-27T01:56:54.683Z,17.00
2022-09-27T01:59:31.965Z,17.03
2022-09-27T02:02:12.264Z,17.23
2022-09-27T02:05:18.059Z,17.02
2022-09-27T02:07:56.745Z,17.14
2022-09-27T02:10:29.947Z,17.01
2022-09-27T02:13:22.569Z,17.07
2022-09-27T02:15:59.776Z,17.06
2022-09-27T02:18:46.054Z,16.95
2022-09-27T02:21:15.345Z,16.89
2022-09-27T02:23:48.624Z,16.93
2022-09-27T02:26:18.602Z,16.93
2022-09-27T02:29:22.552Z,16.87
2022-09-27T02:31:52.705Z,16.84
2022-09-27T02:34:26.540Z,16.78
2022-09-27T02:36:54.493Z,16.87
2022-09-27T02:39:22.081Z,16.32
2022-09-27T02:41:58.558Z,16.39
2022-09-27T02:44:26.858Z,16.60
2022-09-27T02:47:20.711Z,16.41
2022-09-27T02:49:57.124Z,16.46
2022-09-27T02:53:11.474Z,16.55
2022-09-27T02:56:12.307Z,16.47
2022-09-27T02:59:21.797Z,16.74
2022-09-27T03:02:13.155Z,16.56
2022-09-27T03:05:16.060Z,16.37
2022-09-27T03:07:43.410Z,16.51
2022-09-27T03:10:18.600Z,16.28
2022-09-27T03:12:46.094Z,16.38
2022-09-27T03:15:13.959Z,16.33
2022-09-27T03:17:59.636Z,16.36
2022-09-27T03:20:58.580Z,16.50
2022-09-27T03:23:26.062Z,16.58
2022-09-27T03:25:53.818Z,16.49
2022-09-27T03:28:20.742Z,16.37
2022-09-27T03:30:48.731Z,16.51
2022-09-27T03:33:33.941Z,16.53
2022-09-27T03:36:06.363Z,16.52
2022-09-27T03:38:33.606Z,16.60
2022-09-27T03:41:00.961Z,16.61
2022-09-27T03:43:30.862Z,16.49
2022-09-27T03:46:02.811Z,16.63
2022-09-27T03:48:31.252Z,16.67
2022-09-27T03:50:58.553Z,16.91
2022-09-27T03:53:25.603Z,16.85
2022-09-27T03:55:52.601Z,16.91
2022-09-27T03:58:19.447Z,16.86
2022-09-27T04:00:46.924Z,16.83
2022-09-27T04:03:14.034Z,16.73
2022-09-27T04:05:41.094Z,16.68
2022-09-27T04:08:13.741Z,16.79
2022-09-27T04:10:42.501Z,16.67
2022-09-27T04:13:09.648Z,16.72
2022-09-27T04:15:43.522Z,16.75
2022-09-27T04:18:25.641Z,16.85
2022-09-27T04:21:11.166Z,16.80
2022-09-27T04:23:44.071Z,16.81
2022-09-27T04:26:14.494Z,16.72
2022-09-27T04:28:59.917Z,16.55
2022-09-27T04:31:26.938Z,16.64
2022-09-27T04:34:05.976Z,16.65
2022-09-27T04:36:35.292Z,16.61
2022-09-27T04:39:11.802Z,16.64
2022-09-27T04:41:45.145Z,16.70
2022-09-27T04:44:12.459Z,16.92
2022-09-27T04:46:42.358Z,16.93
2022-09-27T04:49:10.836Z,16.90
2022-09-27T04:51:37.727Z,17.07
2022-09-27T04:54:05.064Z,17.48
2022-09-27T04:56:35.867Z,17.80
2022-09-27T04:59:09.830Z,17.98
2022-09-27T05:01:38.949Z,18.12
2022-09-27T05:04:16.768Z,18.22
2022-09-27T05:06:48.301Z,18.29
2022-09-27T05:09:24.177Z,18.31
2022-09-27T05:11:54.523Z,18.40
2022-09-27T05:14:39.732Z,18.48
2022-09-27T05:17:07.922Z,18.53
2022-09-27T05:19:34.862Z,18.55
2022-09-27T05:22:10.884Z,18.61
2022-09-27T05:24:38.421Z,18.74
2022-09-27T05:27:08.321Z,18.81
2022-09-27T05:29:35.756Z,18.93
2022-09-27T05:32:07.982Z,18.83
2022-09-27T05:34:35.135Z,18.47
2022-09-27T05:37:02.524Z,18.75
2022-09-27T05:39:32.504Z,18.94
2022-09-27T05:41:59.381Z,19.14
2022-09-27T05:44:26.228Z,19.31
2022-09-27T05:47:07.011Z,19.13
2022-09-27T05:49:34.253Z,19.34
2022-09-27T05:52:03.542Z,19.47
2022-09-27T05:54:31.855Z,19.54
2022-09-27T05:57:00.507Z,19.50
2022-09-27T05:59:44.117Z,19.43
2022-09-27T06:02:19.914Z,19.47
2022-09-27T06:05:05.789Z,19.50
2022-09-27T06:08:06.075Z,19.48
2022-09-27T06:10:39.545Z,19.36
2022-09-27T06:13:13.255Z,19.51
2022-09-27T06:15:44.231Z,19.46
2022-09-27T06:18:18.130Z,19.43
2022-09-27T06:20:47.792Z,19.61
2022-09-27T06:23:22.595Z,19.61
2022-09-27T06:25:51.495Z,19.38
2022-09-27T06:28:44.862Z,19.60
2022-09-27T06:31:12.339Z,19.64
2022-09-27T06:33:51.336Z,20.03
2022-09-27T06:36:18.218Z,20.01
2022-09-27T06:38:48.324Z,20.17
2022-09-27T06:41:24.587Z,20.20
2022-09-27T06:44:14.739Z,20.13
2022-09-27T06:47:10.332Z,20.28
2022-09-27T06:49:42.980Z,20.24
2022-09-27T06:52:10.526Z,20.58
2022-09-27T06:54:37.462Z,20.51
2022-09-27T06:57:04.349Z,20.60
2022-09-27T06:59:49.963Z,20.60
2022-09-27T07:02:35.450Z,20.32
2022-09-27T07:05:21.661Z,20.16
2022-09-27T07:08:06.880Z,20.23
2022-09-27T07:10:37.797Z,20.29
2022-09-27T07:13:09.622Z,20.35
2022-09-27T07:15:38.442Z,20.41
2022-09-27T07:18:09.218Z,20.16
2022-09-27T07:20:39.090Z,20.20
2022-09-27T07:23:08.113Z,20.21
2022-09-27T07:25:35.617Z,20.31
2022-09-27T07:28:07.866Z,20.31
2022-09-27T07:30:37.146Z,20.44
2022-09-27T07:56:51.928Z,21.02
2022-09-27T07:59:21.428Z,21.17
2022-09-27T08:01:48.612Z,21.52
2022-09-27T08:04:15.540Z,22.09
2022-09-27T08:06:42.818Z,22.18
2022-09-27T08:09:09.982Z,22.27
2022-09-27T08:11:39.060Z,22.11
2022-09-27T08:14:07.017Z,22.12
2022-09-27T08:16:35.067Z,22.37
2022-09-27T08:19:33.095Z,22.33
2022-09-27T08:22:27.307Z,22.43
2022-09-27T08:25:01.151Z,22.33
2022-09-27T08:27:40.540Z,22.44
2022-09-27T08:30:19.343Z,22.58
2022-09-27T08:32:46.320Z,22.63
2022-09-27T08:35:15.429Z,22.72
2022-09-27T08:37:42.268Z,22.97
2022-09-27T08:40:14.527Z,23.11
2022-09-27T08:43:06.608Z,23.38
2022-09-27T08:45:54.052Z,23.59
2022-09-27T08:48:22.634Z,23.78
2022-09-27T08:50:50.315Z,23.70
2022-09-27T08:53:23.407Z,23.84
2022-09-27T08:55:56.957Z,23.41
2022-09-27T08:58:32.276Z,23.45
2022-09-27T09:01:03.476Z,23.50
2022-09-27T09:03:44.286Z,23.72
2022-09-27T09:06:23.986Z,23.19
2022-09-27T09:09:08.858Z,22.97
2022-09-27T09:12:13.286Z,23.11
2022-09-27T09:14:52.310Z,23.51
2022-09-27T09:17:51.620Z,23.38
2022-09-27T09:21:03.959Z,23.62
2022-09-27T09:23:33.828Z,23.70
2022-09-27T09:26:25.562Z,23.63
2022-09-27T09:29:18.221Z,23.55
2022-09-27T09:31:55.031Z,23.78
2022-09-27T09:34:33.997Z,23.68
2022-09-27T09:37:12.945Z,23.45
2022-09-27T09:39:54.339Z,23.18
2022-09-27T09:42:45.448Z,23.34
2022-09-27T09:45:23.182Z,23.43
2022-09-27T09:48:08.515Z,23.47
2022-09-27T09:50:49.608Z,23.38
2022-09-27T09:53:36.150Z,23.24
2022-09-27T09:56:08.809Z,23.21
2022-09-27T09:58:43.589Z,23.09
2022-09-27T10:01:35.307Z,23.01
2022-09-27T10:04:02.421Z,23.22
2022-09-27T10:06:31.759Z,23.27
2022-09-27T10:11:50.703Z,23.11
2022-09-27T10:14:30.779Z,23.19
2022-09-27T10:17:06.504Z,23.17
2022-09-27T10:19:36.610Z,23.20
2022-09-27T10:22:26.687Z,23.27
2022-09-27T10:25:03.876Z,23.27
2022-09-27T10:30:32.387Z,23.28
2022-09-27T10:33:15.075Z,23.35
2022-09-27T10:35:46.240Z,23.54
2022-09-27T10:38:21.881Z,23.35
2022-09-27T10:40:51.182Z,23.39
2022-09-27T10:43:29.758Z,23.59
2022-09-27T10:46:07.446Z,23.87
2022-09-27T10:48:35.119Z,23.89
2022-09-27T10:51:05.501Z,24.06
2022-09-27T10:53:46.164Z,24.06
2022-09-27T10:56:26.405Z,24.00
2022-09-27T10:58:54.104Z,24.20
2022-09-27T11:01:22.935Z,24.40
2022-09-27T11:04:23.323Z,24.97
2022-09-27T11:06:50.420Z,24.89
2022-09-27T11:09:27.108Z,24.77
2022-09-27T11:12:14.390Z,24.91
2022-09-27T11:14:47.259Z,24.82
2022-09-27T11:17:20.486Z,24.62
2022-09-27T11:20:02.109Z,24.27
2022-09-27T11:22:53.842Z,24.21
2022-09-27T11:25:32.106Z,24.33
2022-09-27T11:28:04.423Z,24.20
2022-09-27T11:31:07.146Z,24.21
2022-09-27T11:34:07.267Z,24.08
2022-09-27T11:36:41.739Z,24.12
2022-09-27T11:39:28.679Z,24.20
2022-09-27T11:42:33.280Z,24.77
2022-09-27T11:45:56.391Z,24.90
2022-09-27T11:48:42.839Z,25.16
2022-09-27T11:51:28.732Z,25.27
2022-09-27T11:54:16.050Z,24.91
2022-09-27T11:57:01.833Z,24.80
2022-09-27T11:59:57.019Z,24.66
2022-09-27T12:02:45.795Z,24.55
2022-09-27T12:05:23.761Z,24.43
2022-09-27T12:08:16.852Z,24.21
2022-09-27T12:10:49.297Z,24.17
2022-09-27T12:13:26.477Z,24.11
2022-09-27T12:15:55.180Z,24.12
2022-09-27T12:18:40.940Z,24.12
2022-09-27T12:21:31.601Z,24.15
2022-09-27T12:23:59.616Z,24.21
2022-09-27T12:26:39.984Z,24.25
2022-09-27T12:29:31.712Z,24.49
2022-09-27T12:32:32.755Z,24.51
2022-09-27T12:35:11.717Z,24.50
2022-09-27T12:37:47.441Z,24.58
2022-09-27T12:40:23.400Z,24.63
2022-09-27T12:42:59.145Z,24.83
2022-09-27T12:46:15.485Z,24.89
2022-09-27T12:49:11.581Z,25.06
2022-09-27T12:51:52.569Z,25.14
2022-09-27T12:54:45.760Z,25.26
2022-09-27T12:57:34.670Z,25.21
2022-09-27T13:00:25.267Z,25.05
2022-09-27T13:03:15.101Z,24.97
2022-09-27T13:05:52.777Z,25.24
2022-09-27T13:08:44.174Z,25.06
2022-09-27T13:11:36.829Z,24.91
2022-09-27T13:14:05.328Z,24.97
2022-09-27T13:16:43.291Z,24.88
2022-09-27T13:19:35.748Z,24.99
2022-09-27T13:22:26.752Z,24.90
2022-09-27T13:25:01.716Z,24.79
2022-09-27T13:27:51.894Z,24.79
2022-09-27T13:30:28.606Z,24.64
2022-09-27T13:33:10.655Z,24.64
2022-09-27T13:36:26.109Z,24.69
2022-09-27T13:39:06.612Z,24.55
2022-09-27T13:41:45.513Z,24.52
2022-09-27T13:44:20.405Z,24.63
2022-09-27T13:46:58.694Z,24.62
2022-09-27T13:49:34.177Z,24.75
2022-09-27T13:52:36.536Z,24.80
2022-09-27T13:55:46.421Z,24.77
2022-09-27T13:58:19.268Z,24.82
2022-09-27T14:01:00.279Z,25.03
2022-09-27T14:03:38.225Z,25.47
2022-09-27T14:06:09.307Z,25.62
2022-09-27T14:08:46.004Z,25.60
2022-09-27T14:11:16.877Z,25.49
2022-09-27T14:13:49.372Z,25.46
2022-09-27T14:16:20.959Z,25.18
2022-09-27T14:18:59.888Z,25.16
2022-09-27T14:21:45.397Z,25.07
2022-09-27T14:24:24.926Z,25.25
2022-09-27T14:27:17.577Z,25.36
2022-09-27T14:29:57.021Z,25.09
2022-09-27T14:32:27.682Z,24.89
2022-09-27T14:35:41.122Z,24.70
2022-09-27T14:38:35.935Z,24.73
2022-09-27T14:41:03.631Z,24.67
2022-09-27T14:43:33.095Z,24.63
2022-09-27T14:46:02.616Z,24.57
2022-09-27T14:48:38.903Z,24.53
2022-09-27T14:51:14.319Z,24.46
2022-09-27T14:53:57.274Z,24.47
2022-09-27T14:56:33.309Z,24.38
2022-09-27T14:59:16.273Z,24.30
2022-09-27T15:01:53.343Z,24.24
2022-09-27T15:04:23.211Z,24.10
2022-09-27T15:06:51.418Z,24.00
2022-09-27T15:09:19.635Z,24.04
2022-09-27T15:11:52.919Z,24.01
2022-09-27T15:14:21.701Z,23.96
2022-09-27T15:16:51.791Z,23.88
2022-09-27T15:19:19.067Z,23.91
2022-09-27T15:21:46.170Z,23.88
2022-09-27T15:24:45.326Z,23.78
2022-09-27T15:27:17.393Z,23.82
2022-09-27T15:29:58.665Z,23.84
2022-09-27T15:32:28.633Z,23.86
2022-09-27T15:34:56.755Z,23.76
2022-09-27T15:37:37.951Z,23.77
2022-09-27T15:40:16.814Z,23.65
2022-09-27T15:42:57.968Z,23.56
2022-09-27T15:45:33.850Z,23.57
2022-09-27T15:48:27.282Z,23.52
2022-09-27T15:50:54.362Z,23.48
2022-09-27T15:53:42.556Z,23.54
2022-09-27T15:56:13.877Z,23.36
2022-09-27T15:58:41.496Z,23.26
2022-09-27T16:01:15.780Z,23.35
2022-09-27T16:03:42.627Z,23.38
2022-09-27T16:06:13.856Z,23.29
2022-09-27T16:08:40.968Z,23.32
2022-09-27T16:11:14.017Z,23.39
2022-09-27T16:13:40.920Z,23.26
2022-09-27T16:16:18.216Z,23.15
2022-09-27T16:18:45.576Z,23.10
2022-09-27T16:21:12.755Z,23.15
2022-09-27T16:23:39.934Z,23.05
2022-09-27T16:26:07.034Z,22.98
2022-09-27T16:28:34.498Z,22.98
2022-09-27T16:31:07.152Z,22.90
2022-09-27T16:33:34.640Z,22.86
2022-09-27T16:36:06.884Z,22.88
2022-09-27T16:38:34.002Z,22.87
2022-09-27T16:41:04.199Z,22.91
2022-09-27T16:43:32.407Z,22.76
2022-09-27T16:46:11.775Z,22.57
2022-09-27T16:48:39.372Z,22.31
2022-09-27T16:51:36.545Z,22.27
2022-09-27T16:54:05.754Z,22.14
2022-09-27T16:56:36.037Z,22.17
2022-09-27T16:59:04.571Z,21.98
2022-09-27T17:01:31.987Z,22.05
2022-09-27T17:03:59.935Z,21.99
2022-09-27T17:06:31.998Z,22.00
2022-09-27T17:09:03.005Z,22.06
2022-09-27T17:11:30.052Z,21.85
2022-09-27T17:13:56.999Z,21.82
2022-09-27T17:16:25.031Z,21.88
2022-09-27T17:18:51.912Z,21.90
2022-09-27T17:21:18.745Z,21.90
2022-09-27T17:23:45.779Z,21.92
2022-09-27T17:26:21.294Z,21.95
2022-09-27T17:28:48.850Z,21.93
2022-09-27T17:31:17.867Z,21.83
2022-09-27T17:33:47.864Z,21.94
2022-09-27T17:36:21.097Z,21.73
2022-09-27T17:38:48.854Z,21.66
2022-09-27T17:41:21.090Z,21.69
2022-09-27T17:43:51.323Z,21.66
2022-09-27T17:46:20.558Z,21.58
2022-09-27T17:49:06.926Z,21.62
2022-09-27T17:51:35.718Z,21.73
2022-09-27T17:54:02.609Z,21.67
2022-09-27T17:56:29.445Z,21.64
2022-09-27T17:58:56.528Z,21.50
2022-09-27T18:01:25.349Z,21.50
2022-09-27T18:03:54.580Z,21.51
2022-09-27T18:06:23.286Z,21.42
2022-09-27T18:08:50.974Z,21.50
2022-09-27T18:11:27.641Z,21.27
2022-09-27T18:14:00.302Z,21.30
2022-09-27T18:16:32.574Z,21.40
2022-09-27T18:19:00.604Z,21.33
2022-09-27T18:21:28.520Z,21.35
2022-09-27T18:23:57.164Z,21.35
2022-09-27T18:26:25.398Z,21.32
2022-09-27T18:28:54.793Z,21.25
2022-09-27T18:31:23.769Z,21.30
2022-09-27T18:33:51.082Z,21.21
2022-09-27T18:36:23.242Z,21.20
2022-09-27T18:39:04.551Z,21.19
2022-09-27T18:41:33.581Z,21.18
2022-09-27T18:44:03.083Z,21.07
2022-09-27T18:46:35.971Z,21.03
2022-09-27T18:49:05.491Z,21.15
2022-09-27T18:51:33.579Z,21.06
2022-09-27T18:54:02.438Z,21.10
2022-09-27T18:56:30.482Z,21.01
2022-09-27T18:58:57.562Z,20.97
2022-09-27T19:01:25.825Z,20.93
2022-09-27T19:03:53.142Z,20.94
2022-09-27T19:06:23.785Z,20.97
2022-09-27T19:08:55.887Z,21.07
2022-09-27T19:11:22.780Z,21.00
2022-09-27T19:13:52.359Z,20.60
2022-09-27T19:16:21.192Z,20.73
2022-09-27T19:18:48.709Z,20.80
2022-09-27T19:21:19.998Z,20.83
2022-09-27T19:23:47.093Z,20.64
2022-09-27T19:26:17.341Z,20.65
2022-09-27T19:28:45.684Z,20.72
2022-09-27T19:31:15.267Z,20.73
2022-09-27T19:33:42.381Z,20.69
2022-09-27T19:36:11.675Z,20.61
2022-09-27T19:38:39.020Z,20.62
2022-09-27T19:41:08.054Z,20.63
2022-09-27T19:43:35.009Z,20.65
2022-09-27T19:46:05.670Z,20.78
2022-09-27T19:48:33.061Z,20.87
2022-09-27T19:51:01.165Z,20.65
2022-09-27T19:53:32.202Z,20.57
2022-09-27T19:56:00.681Z,20.54
2022-09-27T19:58:28.716Z,20.53
2022-09-27T20:01:15.364Z,20.59
2022-09-27T20:03:44.530Z,20.58
2022-09-27T20:06:14.672Z,20.55
2022-09-27T20:08:45.804Z,20.55
2022-09-27T20:11:19.037Z,20.52
2022-09-27T20:13:45.933Z,20.54
2022-09-27T20:16:15.968Z,20.50
2022-09-27T20:18:45.776Z,20.51
2022-09-27T20:21:13.161Z,20.47
2022-09-27T20:23:39.990Z,20.38
2022-09-27T20:26:15.081Z,20.43
2022-09-27T20:28:44.176Z,20.51
2022-09-27T20:31:13.101Z,20.35
2022-09-27T20:33:43.706Z,20.02
2022-09-27T20:36:18.132Z,19.89
2022-09-27T20:38:47.140Z,19.69
2022-09-27T20:41:20.211Z,19.76
2022-09-27T20:43:48.443Z,19.76
2022-09-27T20:46:19.683Z,19.53
2022-09-27T20:48:54.443Z,19.50
2022-09-27T20:51:21.738Z,19.63
2022-09-27T20:53:51.991Z,19.55
2022-09-27T20:56:31.562Z,19.57
2022-09-27T20:59:01.052Z,19.83
2022-09-27T21:01:29.337Z,19.75
2022-09-27T21:04:16.875Z,19.37
2022-09-27T21:06:44.451Z,19.18
2022-09-27T21:09:18.446Z,19.22
2022-09-27T21:11:47.398Z,19.24
2022-09-27T21:14:14.289Z,19.04
2022-09-27T21:16:41.408Z,18.85
2022-09-27T21:19:09.989Z,18.59
2022-09-27T21:21:37.076Z,18.46
2022-09-27T21:24:04.039Z,18.56
2022-09-27T21:26:32.922Z,18.50
2022-09-27T21:29:01.911Z,18.65
2022-09-27T21:31:32.127Z,18.37
2022-09-27T21:34:01.772Z,18.50
2022-09-27T21:36:30.965Z,18.74
2022-09-27T21:38:58.574Z,18.66
2022-09-27T21:41:26.274Z,18.71
2022-09-27T21:43:53.507Z,18.72
2022-09-27T21:46:25.444Z,18.95
2022-09-27T21:48:55.943Z,18.86
2022-09-27T21:51:24.155Z,18.91
2022-09-27T21:54:02.296Z,18.79
2022-09-27T21:56:35.125Z,18.68
2022-09-27T21:59:02.326Z,18.78
2022-09-27T22:01:31.377Z,18.81
2022-09-27T22:03:59.425Z,18.75
2022-09-27T22:06:28.884Z,18.67
2022-09-27T22:08:58.644Z,18.63
2022-09-27T22:11:28.076Z,18.46
2022-09-27T22:13:55.695Z,18.40
2022-09-27T22:16:23.282Z,18.54
2022-09-27T22:18:52.665Z,18.52
2022-09-27T22:21:25.556Z,18.42
2022-09-27T22:23:57.562Z,18.27
2022-09-27T22:26:27.025Z,18.32
2022-09-27T22:28:54.256Z,18.30
2022-09-27T22:31:22.329Z,18.30
2022-09-27T22:33:53.847Z,18.32
2022-09-27T22:36:21.773Z,18.24
2022-09-27T22:38:49.444Z,18.25
2022-09-27T22:41:16.674Z,18.18
2022-09-27T22:43:44.212Z,18.44
2022-09-27T22:46:11.170Z,18.10
2022-09-27T22:48:38.020Z,18.13
2022-09-27T22:51:05.353Z,18.04
2022-09-27T22:53:32.719Z,18.03
2022-09-27T22:56:04.289Z,18.02
2022-09-27T22:58:32.293Z,17.96
2022-09-27T23:00:59.887Z,17.98
2022-09-27T23:03:26.787Z,17.99
2022-09-27T23:05:53.684Z,18.09
2022-09-27T23:08:21.570Z,18.10
2022-09-27T23:10:48.335Z,17.74
2022-09-27T23:13:15.155Z,17.55
2022-09-27T23:15:42.132Z,17.37
2022-09-27T23:18:10.168Z,17.20
2022-09-27T23:20:37.208Z,16.93
2022-09-27T23:23:04.130Z,17.08
2022-09-27T23:25:30.932Z,17.29
2022-09-27T23:27:58.284Z,17.00
2022-09-27T23:30:25.979Z,17.29
2022-09-27T23:32:54.353Z,17.28
2022-09-27T23:35:21.734Z,17.00
2022-09-27T23:37:52.012Z,16.79
2022-09-27T23:40:18.838Z,17.02
2022-09-27T23:42:45.713Z,16.86
2022-09-27T23:45:14.286Z,16.97
2022-09-27T23:47:41.119Z,16.87
2022-09-27T23:50:08.827Z,17.03
2022-09-27T23:52:35.658Z,17.20
2022-09-27T23:55:02.523Z,17.16
2022-09-27T23:57:30.678Z,17.07
2022-09-27T23:59:57.479Z,17.09
